createdAt,value
2023-01-21T00:00:14.475Z,13.98
2023-01-21T00:02:41.782Z,13.45
2023-01-21T00:05:09.148Z,13.07
2023-01-21T00:07:36.336Z,13.77
2023-01-21T00:10:03.543Z,14.27
2023-01-21T00:12:30.777Z,14.65
2023-01-21T00:14:57.975Z,14.30
2023-01-21T00:17:25.182Z,15.75
2023-01-21T00:19:52.350Z,14.13
2023-01-21T00:22:19.612Z,16.63
2023-01-21T00:24:46.730Z,13.02
2023-01-21T00:27:13.854Z,12.93
2023-01-21T00:29:40.988Z,11.57
2023-01-21T00:32:08.153Z,11.35
2023-01-21T00:34:35.322Z,12.40
2023-01-21T00:37:02.507Z,11.05
2023-01-21T00:39:29.838Z,12.18
2023-01-21T00:41:56.961Z,10.88
2023-01-21T00:44:24.103Z,10.80
2023-01-21T00:46:51.276Z,11.70
2023-01-21T00:49:18.425Z,11.75
2023-01-21T00:51:45.632Z,11.27
2023-01-21T00:54:12.871Z,10.45
2023-01-21T00:56:40.010Z,10.75
2023-01-21T00:59:07.287Z,10.48
2023-01-21T01:01:37.902Z,9.63
2023-01-21T01:04:08.651Z,10.27
2023-01-21T01:06:36.075Z,10.63
2023-01-21T01:09:03.283Z,10.43
2023-01-21T01:11:31.536Z,10.30
2023-01-21T01:13:59.354Z,10.10
2023-01-21T01:16:26.691Z,10.30
2023-01-21T01:18:54.106Z,9.32
2023-01-21T01:21:21.887Z,10.02
2023-01-21T01:23:49.668Z,9.57
2023-01-21T01:26:17.835Z,9.13
2023-01-21T01:28:44.977Z,9.05
2023-01-21T01:31:13.737Z,8.98
2023-01-21T01:33:41.077Z,8.40
2023-01-21T01:36:09.671Z,9.63
2023-01-21T01:38:36.872Z,7.90
2023-01-21T01:41:04.698Z,8.00
2023-01-21T01:43:50.420Z,8.57
2023-01-21T01:46:17.629Z,8.55
2023-01-21T01:48:46.660Z,8.75
2023-01-21T01:51:14.315Z,8.80
2023-01-21T01:53:43.826Z,8.10
2023-01-21T01:56:11.168Z,9.52
2023-01-21T01:58:38.557Z,9.10
2023-01-21T02:01:05.874Z,9.35
2023-01-21T02:03:44.444Z,9.82
2023-01-21T02:06:12.313Z,9.68
2023-01-21T02:08:40.300Z,9.38
2023-01-21T02:11:11.546Z,9.77
2023-01-21T02:13:38.686Z,8.10
2023-01-21T02:16:09.214Z,8.88
2023-01-21T02:18:40.492Z,8.57
2023-01-21T02:21:26.504Z,7.93
2023-01-21T02:23:56.680Z,7.90
2023-01-21T02:26:23.820Z,7.47
2023-01-21T02:29:09.707Z,7.97
2023-01-21T02:31:50.153Z,7.57
2023-01-21T02:34:23.193Z,7.95
2023-01-21T02:36:58.117Z,7.53
2023-01-21T02:39:32.778Z,7.18
2023-01-21T02:41:59.896Z,7.15
2023-01-21T02:44:40.662Z,7.38
2023-01-21T02:47:10.547Z,7.63
2023-01-21T02:49:37.620Z,7.70
2023-01-21T02:52:05.007Z,8.70
2023-01-21T02:54:41.464Z,7.38
2023-01-21T02:57:10.046Z,7.75
2023-01-21T02:59:37.904Z,8.20
2023-01-21T03:02:15.887Z,8.57
2023-01-21T03:04:49.257Z,7.93
2023-01-21T03:07:16.531Z,8.10
2023-01-21T03:09:43.778Z,8.18
2023-01-21T03:12:29.763Z,9.15
2023-01-21T03:15:24.831Z,8.82
2023-01-21T03:17:52.039Z,9.60
2023-01-21T03:20:24.396Z,10.55
2023-01-21T03:25:19.309Z,10.18
2023-01-21T03:27:47.529Z,11.25
2023-01-21T03:30:15.773Z,10.93
2023-01-21T03:32:44.345Z,10.00
2023-01-21T03:35:13.132Z,12.13
2023-01-21T03:37:47.215Z,10.57
2023-01-21T03:40:28.915Z,10.60
2023-01-21T03:42:56.631Z,10.52
2023-01-21T03:45:44.377Z,11.07
2023-01-21T03:48:19.857Z,10.40
2023-01-21T03:50:51.176Z,9.88
2023-01-21T03:53:18.684Z,10.45
2023-01-21T03:55:45.897Z,10.85
2023-01-21T03:58:13.061Z,10.10
2023-01-21T04:00:40.246Z,12.70
2023-01-21T04:03:07.449Z,17.60
2023-01-21T04:05:36.035Z,12.48
2023-01-21T04:08:03.206Z,12.50
2023-01-21T04:10:30.410Z,12.60
2023-01-21T04:12:57.615Z,12.63
2023-01-21T04:15:24.729Z,13.90
2023-01-21T04:17:51.902Z,13.05
2023-01-21T04:20:19.775Z,14.48
2023-01-21T04:22:46.953Z,14.02
2023-01-21T04:25:14.120Z,14.15
2023-01-21T04:27:41.289Z,15.48
2023-01-21T04:30:08.941Z,15.05
2023-01-21T04:32:37.477Z,15.85
2023-01-21T04:35:04.870Z,16.25
2023-01-21T04:37:32.000Z,15.60
2023-01-21T04:39:59.098Z,16.20
2023-01-21T04:42:26.240Z,16.75
2023-01-21T04:44:53.362Z,19.10
2023-01-21T04:47:20.524Z,19.08
2023-01-21T04:49:48.852Z,19.08
2023-01-21T04:52:16.048Z,20.63
2023-01-21T04:54:43.176Z,21.80
2023-01-21T04:57:11.832Z,21.05
2023-01-21T04:59:39.039Z,19.15
2023-01-21T05:02:06.307Z,19.45
2023-01-21T05:04:33.535Z,22.10
2023-01-21T05:07:00.754Z,23.75
2023-01-21T05:09:28.066Z,23.15
2023-01-21T05:11:55.336Z,22.58
2023-01-21T05:14:22.628Z,23.00
2023-01-21T05:16:49.888Z,23.73
2023-01-21T05:19:17.095Z,21.65
2023-01-21T05:21:44.289Z,22.38
2023-01-21T05:24:11.515Z,24.88
2023-01-21T05:26:38.753Z,21.85
2023-01-21T05:29:05.843Z,26.38
2023-01-21T05:31:33.142Z,30.10
2023-01-21T05:34:00.274Z,25.08
2023-01-21T05:36:27.441Z,25.65
2023-01-21T05:38:54.658Z,24.02
2023-01-21T05:41:21.859Z,21.98
2023-01-21T05:43:48.986Z,18.67
2023-01-21T05:46:16.263Z,23.88
2023-01-21T05:48:43.511Z,24.08
2023-01-21T05:51:10.652Z,24.13
2023-01-21T05:53:37.858Z,25.08
2023-01-21T05:56:05.264Z,22.45
2023-01-21T05:58:32.475Z,20.88
2023-01-21T06:00:59.829Z,13.55
2023-01-21T06:03:27.341Z,20.00
2023-01-21T06:05:54.600Z,21.42
2023-01-21T06:08:21.818Z,18.35
2023-01-21T06:10:49.021Z,14.60
2023-01-21T06:13:16.626Z,21.58
2023-01-21T06:15:43.895Z,14.20
2023-01-21T06:18:11.044Z,19.65
2023-01-21T06:20:38.313Z,18.70
2023-01-21T06:23:05.721Z,15.63
2023-01-21T06:25:33.438Z,22.70
2023-01-21T06:28:01.326Z,23.13
2023-01-21T06:30:28.576Z,24.45
2023-01-21T06:32:55.893Z,22.08
2023-01-21T06:35:23.029Z,23.63
2023-01-21T06:37:50.193Z,19.48
2023-01-21T06:40:17.865Z,23.00
2023-01-21T06:42:49.615Z,19.77
2023-01-21T06:45:16.928Z,21.33
2023-01-21T06:47:44.767Z,22.38
2023-01-21T06:50:12.911Z,23.23
2023-01-21T06:52:41.065Z,10.65
2023-01-21T06:55:08.437Z,22.30
2023-01-21T06:57:35.651Z,19.27
2023-01-21T07:00:02.866Z,22.75
2023-01-21T07:02:30.088Z,22.88
2023-01-21T07:04:59.082Z,22.73
2023-01-21T07:07:26.645Z,24.25
2023-01-21T07:09:53.827Z,22.13
2023-01-21T07:12:20.958Z,23.83
2023-01-21T07:14:48.044Z,23.17
2023-01-21T07:17:16.403Z,21.17
2023-01-21T07:19:43.596Z,23.40
2023-01-21T07:22:10.793Z,23.67
2023-01-21T07:24:37.929Z,24.42
2023-01-21T07:27:06.151Z,24.88
2023-01-21T07:29:33.314Z,14.85
2023-01-21T07:32:00.512Z,23.77
2023-01-21T07:34:27.692Z,14.25
2023-01-21T07:36:54.856Z,26.70
2023-01-21T07:39:21.988Z,28.60
2023-01-21T07:41:49.205Z,26.13
2023-01-21T07:44:16.329Z,27.20
2023-01-21T07:46:43.510Z,27.13
2023-01-21T07:49:12.956Z,19.38
2023-01-21T07:51:40.089Z,25.95
2023-01-21T07:54:07.198Z,23.45
2023-01-21T07:56:34.318Z,26.80
2023-01-21T07:59:01.575Z,25.02
2023-01-21T08:01:31.037Z,26.30
2023-01-21T08:03:59.047Z,14.38
2023-01-21T08:06:26.319Z,25.88
2023-01-21T08:08:54.577Z,23.77
2023-01-21T08:11:21.755Z,53.70
2023-01-21T08:13:49.901Z,66.20
2023-01-21T08:16:17.127Z,38.35
2023-01-21T08:18:44.350Z,27.42
2023-01-21T08:21:11.556Z,29.52
2023-01-21T08:23:38.726Z,28.00
2023-01-21T08:26:06.649Z,26.40
2023-01-21T08:28:34.396Z,25.55
2023-01-21T08:31:06.029Z,26.70
2023-01-21T08:33:33.344Z,25.92
2023-01-21T08:36:01.253Z,25.15
2023-01-21T08:38:28.539Z,24.02
2023-01-21T08:40:58.199Z,25.75
2023-01-21T08:43:25.946Z,23.58
2023-01-21T08:45:55.941Z,25.42
2023-01-21T08:48:23.160Z,30.67
2023-01-21T08:50:50.358Z,24.83
2023-01-21T08:53:17.518Z,23.05
2023-01-21T08:55:44.658Z,25.92
2023-01-21T08:58:11.796Z,21.83
2023-01-21T09:00:39.074Z,23.15
2023-01-21T09:03:06.272Z,20.63
2023-01-21T09:05:33.446Z,20.60
2023-01-21T09:08:00.628Z,26.88
2023-01-21T09:10:46.332Z,23.27
2023-01-21T09:13:13.450Z,19.17
2023-01-21T09:15:41.291Z,19.85
2023-01-21T09:18:08.491Z,20.13
2023-01-21T09:20:35.747Z,18.63
2023-01-21T09:23:02.905Z,18.70
2023-01-21T09:25:30.054Z,20.40
2023-01-21T09:27:57.170Z,21.55
2023-01-21T09:30:24.361Z,22.70
2023-01-21T09:32:51.503Z,20.05
2023-01-21T09:35:18.784Z,21.73
2023-01-21T09:37:48.087Z,38.42
2023-01-21T09:40:17.001Z,23.15
2023-01-21T09:42:44.315Z,21.45
2023-01-21T09:45:15.396Z,21.27
2023-01-21T09:47:44.347Z,21.42
2023-01-21T09:50:14.258Z,21.83
2023-01-21T09:52:46.201Z,22.17
2023-01-21T09:55:18.446Z,21.77
2023-01-21T09:57:48.912Z,21.40
2023-01-21T10:00:35.105Z,22.10
2023-01-21T10:03:04.550Z,21.58
2023-01-21T10:05:50.556Z,22.60
2023-01-21T10:08:17.751Z,20.85
2023-01-21T10:10:44.880Z,19.13
2023-01-21T10:13:30.851Z,22.35
2023-01-21T10:16:05.979Z,17.80
2023-01-21T10:18:35.535Z,20.13
2023-01-21T10:21:11.444Z,18.15
2023-01-21T10:23:43.106Z,20.55
2023-01-21T10:26:12.454Z,22.45
2023-01-21T10:28:41.424Z,21.02
2023-01-21T10:31:30.854Z,52.60
2023-01-21T10:33:58.106Z,21.90
2023-01-21T10:36:35.399Z,20.15
2023-01-21T10:39:09.818Z,18.75
2023-01-21T10:41:42.786Z,19.13
2023-01-21T10:44:28.381Z,20.80
2023-01-21T10:46:55.499Z,19.83
2023-01-21T10:49:28.747Z,19.67
2023-01-21T10:52:07.624Z,19.40
2023-01-21T10:54:58.133Z,19.55
2023-01-21T10:57:25.208Z,17.23
2023-01-21T10:59:52.851Z,18.10
2023-01-21T11:02:28.226Z,17.63
2023-01-21T11:04:55.484Z,19.42
2023-01-21T11:07:23.143Z,19.13
2023-01-21T11:09:50.340Z,17.88
2023-01-21T11:12:20.444Z,17.83
2023-01-21T11:15:10.884Z,18.10
2023-01-21T11:17:40.133Z,16.95
2023-01-21T11:20:16.449Z,38.38
2023-01-21T11:22:45.665Z,20.27
2023-01-21T11:25:26.210Z,17.65
2023-01-21T11:27:53.399Z,18.63
2023-01-21T11:30:48.275Z,19.73
2023-01-21T11:33:19.564Z,20.48
2023-01-21T11:35:46.783Z,20.50
2023-01-21T11:38:24.391Z,20.80
2023-01-21T11:41:11.191Z,16.90
2023-01-21T11:44:08.291Z,19.45
2023-01-21T11:46:39.772Z,21.30
2023-01-21T11:49:10.038Z,19.93
2023-01-21T11:51:38.223Z,19.63
2023-01-21T11:54:21.982Z,20.70
2023-01-21T11:56:54.084Z,21.48
2023-01-21T11:59:21.311Z,19.25
2023-01-21T12:01:52.868Z,19.45
2023-01-21T12:04:20.113Z,19.13
2023-01-21T12:06:48.298Z,20.38
2023-01-21T12:09:19.398Z,17.17
2023-01-21T12:11:50.443Z,18.23
2023-01-21T12:14:31.449Z,19.27
2023-01-21T12:17:07.991Z,19.58
2023-01-21T12:19:42.343Z,20.63
2023-01-21T12:22:15.638Z,18.77
2023-01-21T12:24:52.012Z,12.95
2023-01-21T12:27:32.057Z,15.70
2023-01-21T12:29:59.211Z,17.30
2023-01-21T12:32:37.260Z,14.60
2023-01-21T12:35:14.072Z,16.08
2023-01-21T12:37:48.334Z,16.75
2023-01-21T12:40:21.081Z,17.27
2023-01-21T12:42:52.703Z,14.20
2023-01-21T12:45:27.418Z,11.80
2023-01-21T12:48:01.404Z,9.40
2023-01-21T12:50:39.527Z,15.65
2023-01-21T12:53:15.957Z,14.82
2023-01-21T12:55:50.000Z,16.23
2023-01-21T12:58:19.104Z,10.02
2023-01-21T13:00:48.370Z,16.05
2023-01-21T13:03:35.773Z,15.15
2023-01-21T13:06:02.893Z,14.13
2023-01-21T13:08:53.465Z,15.50
2023-01-21T13:11:28.660Z,16.00
2023-01-21T13:14:08.148Z,13.90
2023-01-21T13:17:07.956Z,15.75
2023-01-21T13:19:35.152Z,15.30
2023-01-21T13:22:20.934Z,15.23
2023-01-21T13:24:57.162Z,15.73
2023-01-21T13:27:34.515Z,15.68
2023-01-21T13:30:18.397Z,14.93
2023-01-21T13:33:08.622Z,15.63
2023-01-21T13:35:51.118Z,15.48
2023-01-21T13:38:38.511Z,14.65
2023-01-21T13:41:14.928Z,14.98
2023-01-21T13:43:44.139Z,13.25
2023-01-21T13:46:26.676Z,15.93
2023-01-21T13:49:20.031Z,15.77
2023-01-21T13:52:11.653Z,15.13
2023-01-21T13:54:39.404Z,18.17
2023-01-21T13:57:14.483Z,14.73
2023-01-21T13:59:56.455Z,14.98
2023-01-21T14:02:23.648Z,14.90
2023-01-21T14:05:01.868Z,14.48
2023-01-21T14:07:29.001Z,14.27
2023-01-21T14:10:06.574Z,12.30
2023-01-21T14:12:39.989Z,11.77
2023-01-21T14:15:07.090Z,15.18
2023-01-21T14:17:43.188Z,14.32
2023-01-21T14:20:16.504Z,14.48
2023-01-21T14:22:54.961Z,13.63
2023-01-21T14:25:36.209Z,14.23
2023-01-21T14:28:15.173Z,13.90
2023-01-21T14:30:45.394Z,12.18
2023-01-21T14:33:24.284Z,12.10
2023-01-21T14:36:11.739Z,19.42
2023-01-21T14:38:43.487Z,12.80
2023-01-21T14:41:11.358Z,12.70
2023-01-21T14:43:40.330Z,12.68
2023-01-21T14:46:22.891Z,13.02
2023-01-21T14:51:21.837Z,10.73
2023-01-21T14:53:50.132Z,10.73
2023-01-21T14:56:28.938Z,12.20
2023-01-21T14:59:04.231Z,10.93
2023-01-21T15:01:31.596Z,10.40
2023-01-21T15:04:00.158Z,12.38
2023-01-21T15:06:27.448Z,11.23
2023-01-21T15:08:57.701Z,9.73
2023-01-21T15:11:44.788Z,10.07
2023-01-21T15:14:16.758Z,8.90
2023-01-21T15:16:44.931Z,9.95
2023-01-21T15:19:12.678Z,9.68
2023-01-21T15:21:45.513Z,9.32
2023-01-21T15:24:33.173Z,9.50
2023-01-21T15:27:18.396Z,9.55
2023-01-21T15:29:45.619Z,10.15
2023-01-21T15:32:33.107Z,7.57
2023-01-21T15:35:06.456Z,9.20
2023-01-21T15:37:37.848Z,10.13
2023-01-21T15:40:23.796Z,9.85
2023-01-21T15:42:50.889Z,6.22
2023-01-21T15:45:33.810Z,9.48
2023-01-21T15:48:07.066Z,10.57
2023-01-21T15:50:49.309Z,11.45
2023-01-21T15:53:25.987Z,10.20
2023-01-21T15:55:58.914Z,14.60
2023-01-21T15:58:41.733Z,11.25
2023-01-21T16:01:08.873Z,9.95
2023-01-21T16:03:42.549Z,10.68
2023-01-21T16:06:23.348Z,10.70
2023-01-21T16:08:55.857Z,9.23
2023-01-21T16:11:40.418Z,12.05
2023-01-21T16:14:12.031Z,11.57
2023-01-21T16:16:40.767Z,9.57
2023-01-21T16:19:13.323Z,10.02
2023-01-21T16:21:42.384Z,12.23
2023-01-21T16:24:13.016Z,12.52
2023-01-21T16:26:40.137Z,15.73
2023-01-21T16:29:13.134Z,12.48
2023-01-21T16:31:59.375Z,64.13
2023-01-21T16:34:42.986Z,16.20
2023-01-21T16:37:14.303Z,15.00
2023-01-21T16:39:42.303Z,11.07
2023-01-21T16:42:21.719Z,13.23
2023-01-21T16:44:48.985Z,11.90
2023-01-21T16:47:33.295Z,13.27
2023-01-21T16:50:00.401Z,12.45
2023-01-21T16:52:28.311Z,12.60
2023-01-21T16:54:56.323Z,11.40
2023-01-21T16:57:31.462Z,12.75
2023-01-21T17:00:02.092Z,12.80
2023-01-21T17:02:33.488Z,12.23
2023-01-21T17:05:02.170Z,11.75
2023-01-21T17:07:34.482Z,11.20
2023-01-21T17:10:19.267Z,11.50
2023-01-21T17:12:47.713Z,12.32
2023-01-21T17:15:21.359Z,12.32
2023-01-21T17:17:48.547Z,12.40
2023-01-21T17:20:51.537Z,11.73
2023-01-21T17:25:49.851Z,11.98
2023-01-21T17:28:31.096Z,12.23
2023-01-21T17:31:12.046Z,12.77
2023-01-21T17:33:39.341Z,12.20
2023-01-21T17:36:13.949Z,13.57
2023-01-21T17:38:42.343Z,13.60
2023-01-21T17:41:11.751Z,13.90
2023-01-21T17:43:40.119Z,13.63
2023-01-21T17:46:07.518Z,14.40
2023-01-21T17:48:36.360Z,12.45
2023-01-21T17:51:17.963Z,10.65
2023-01-21T17:53:56.448Z,12.25
2023-01-21T17:56:39.109Z,11.38
2023-01-21T18:01:33.395Z,12.18
2023-01-21T18:04:00.574Z,12.90
2023-01-21T18:06:29.047Z,9.88
2023-01-21T18:08:57.949Z,12.88
2023-01-21T18:11:25.149Z,12.80
2023-01-21T18:13:52.646Z,13.63
2023-01-21T18:16:19.978Z,14.90
2023-01-21T18:18:47.250Z,16.08
2023-01-21T18:21:18.903Z,11.75
2023-01-21T18:23:46.296Z,12.93
2023-01-21T18:26:17.376Z,13.20
2023-01-21T18:28:44.509Z,13.07
2023-01-21T18:31:11.850Z,12.60
2023-01-21T18:33:39.039Z,11.93
2023-01-21T18:36:06.334Z,11.80
2023-01-21T18:38:35.837Z,11.60
2023-01-21T18:41:03.085Z,13.65
2023-01-21T18:43:31.108Z,13.05
2023-01-21T18:45:58.324Z,13.82
2023-01-21T18:48:32.119Z,16.80
2023-01-21T18:50:59.337Z,12.77
2023-01-21T18:53:26.935Z,72.22
2023-01-21T18:55:54.343Z,23.27
2023-01-21T18:58:21.617Z,19.00
2023-01-21T19:00:49.175Z,25.13
2023-01-21T19:03:16.458Z,13.15
2023-01-21T19:05:44.988Z,14.43
2023-01-21T19:08:16.821Z,15.27
2023-01-21T19:10:43.935Z,13.77
2023-01-21T19:13:12.512Z,14.43
2023-01-21T19:15:39.807Z,15.57
2023-01-21T19:18:11.046Z,11.52
2023-01-21T19:20:41.820Z,14.82
2023-01-21T19:23:17.228Z,14.95
2023-01-21T19:25:55.139Z,13.88
2023-01-21T19:28:22.624Z,15.95
2023-01-21T19:30:50.584Z,14.98
2023-01-21T19:33:17.829Z,16.50
2023-01-21T19:35:46.026Z,20.00
2023-01-21T19:38:16.231Z,15.73
2023-01-21T19:40:43.702Z,23.65
2023-01-21T19:43:14.530Z,20.02
2023-01-21T19:45:42.273Z,57.20
2023-01-21T19:48:13.452Z,21.00
2023-01-21T19:50:40.772Z,25.65
2023-01-21T19:53:07.944Z,38.50
2023-01-21T19:55:36.221Z,21.73
2023-01-21T19:58:05.083Z,27.20
2023-01-21T20:00:33.753Z,30.30
2023-01-21T20:03:01.277Z,22.48
2023-01-21T20:05:29.621Z,20.48
2023-01-21T20:07:56.818Z,17.70
2023-01-21T20:10:25.475Z,21.23
2023-01-21T20:12:53.150Z,18.33
2023-01-21T20:15:22.660Z,18.48
2023-01-21T20:17:52.559Z,22.65
2023-01-21T20:20:20.972Z,22.33
2023-01-21T20:22:48.187Z,18.90
2023-01-21T20:25:16.680Z,15.85
2023-01-21T20:27:45.234Z,18.48
2023-01-21T20:30:20.539Z,22.75
2023-01-21T20:32:49.023Z,29.25
2023-01-21T20:35:17.147Z,15.57
2023-01-21T20:37:47.587Z,15.93
2023-01-21T20:40:22.779Z,13.30
2023-01-21T20:42:50.205Z,16.55
2023-01-21T20:45:17.799Z,26.15
2023-01-21T20:47:50.133Z,25.55
2023-01-21T20:50:27.841Z,15.15
2023-01-21T20:52:55.240Z,15.30
2023-01-21T20:55:24.341Z,15.50
2023-01-21T20:57:51.698Z,14.70
2023-01-21T21:00:29.563Z,16.67
2023-01-21T21:02:57.787Z,12.73
2023-01-21T21:05:26.105Z,13.52
2023-01-21T21:07:53.579Z,14.85
2023-01-21T21:10:23.550Z,17.67
2023-01-21T21:12:51.218Z,20.75
2023-01-21T21:15:19.808Z,49.75
2023-01-21T21:17:47.150Z,31.25
2023-01-21T21:20:24.846Z,20.27
2023-01-21T21:22:51.981Z,14.35
2023-01-21T21:25:29.263Z,16.40
2023-01-21T21:27:56.482Z,14.73
2023-01-21T21:30:23.628Z,18.25
2023-01-21T21:32:50.826Z,15.75
2023-01-21T21:35:21.305Z,13.15
2023-01-21T21:37:49.038Z,12.95
2023-01-21T21:40:16.572Z,12.52
2023-01-21T21:43:02.330Z,14.18
2023-01-21T21:45:29.582Z,12.05
2023-01-21T21:48:15.626Z,11.15
2023-01-21T21:50:43.016Z,11.95
2023-01-21T21:53:10.220Z,12.50
2023-01-21T21:55:37.440Z,11.80
2023-01-21T21:58:05.706Z,12.43
2023-01-21T22:00:32.880Z,11.43
2023-01-21T22:03:00.422Z,12.68
2023-01-21T22:05:27.791Z,12.23
2023-01-21T22:07:55.600Z,13.75
2023-01-21T22:10:22.823Z,13.35
2023-01-21T22:12:50.052Z,14.25
2023-01-21T22:15:17.503Z,13.70
2023-01-21T22:17:44.778Z,12.90
2023-01-21T22:20:12.302Z,13.68
2023-01-21T22:22:40.008Z,14.13
2023-01-21T22:25:09.387Z,13.27
2023-01-21T22:27:36.491Z,13.02
2023-01-21T22:30:03.853Z,13.25
2023-01-21T22:32:31.053Z,13.63
2023-01-21T22:34:58.214Z,12.80
2023-01-21T22:37:25.378Z,13.52
2023-01-21T22:39:52.602Z,12.95
2023-01-21T22:42:19.958Z,12.07
2023-01-21T22:44:47.166Z,13.68
2023-01-21T22:47:14.379Z,13.50
2023-01-21T22:49:42.478Z,14.80
2023-01-21T22:52:09.699Z,14.35
2023-01-21T22:54:36.927Z,15.65
2023-01-21T22:57:04.076Z,17.20
2023-01-21T22:59:33.526Z,17.75
2023-01-21T23:02:00.724Z,18.67
2023-01-21T23:04:27.970Z,16.50
2023-01-21T23:06:55.903Z,16.58
2023-01-21T23:09:23.200Z,16.45
2023-01-21T23:11:52.577Z,17.00
2023-01-21T23:14:20.070Z,16.13
2023-01-21T23:16:47.279Z,18.33
2023-01-21T23:19:15.240Z,17.05
2023-01-21T23:21:42.492Z,15.85
2023-01-21T23:24:09.641Z,16.45
2023-01-21T23:26:37.069Z,16.65
2023-01-21T23:29:04.262Z,17.05
2023-01-21T23:31:31.534Z,16.38
2023-01-21T23:33:58.745Z,16.17
2023-01-21T23:36:25.958Z,16.20
2023-01-21T23:38:53.104Z,15.90
2023-01-21T23:41:21.113Z,16.10
2023-01-21T23:43:48.427Z,16.90
2023-01-21T23:46:16.677Z,14.68
2023-01-21T23:48:44.276Z,14.98
2023-01-21T23:51:13.217Z,16.38
2023-01-21T23:53:40.373Z,15.18
2023-01-21T23:56:09.985Z,14.20
2023-01-21T23:58:37.184Z,15.00
